sensor_id;sensor_type;location;lat;lon;timestamp;P1;durP1;ratioP1;P2;durP2;ratioP2
13325;SDS011;6732;51.044;3.746;2022-11-20T00:01:09;56.90;;;31.77;;
13325;SDS011;6732;51.044;3.746;2022-11-20T00:03:37;54.73;;;32.40;;
13325;SDS011;6732;51.044;3.746;2022-11-20T00:06:07;54.80;;;31.73;;
13325;SDS011;6732;51.044;3.746;2022-11-20T00:08:34;55.60;;;31.97;;
13325;SDS011;6732;51.044;3.746;2022-11-20T00:11:05;59.93;;;34.43;;
13325;SDS011;6732;51.044;3.746;2022-11-20T00:13:32;57.30;;;35.73;;
13325;SDS011;6732;51.044;3.746;2022-11-20T00:15:59;56.17;;;34.67;;
13325;SDS011;6732;51.044;3.746;2022-11-20T00:18:27;58.97;;;35.20;;
13325;SDS011;6732;51.044;3.746;2022-11-20T00:20:53;55.90;;;36.80;;
13325;SDS011;6732;51.044;3.746;2022-11-20T00:23:25;53.33;;;35.00;;
13325;SDS011;6732;51.044;3.746;2022-11-20T00:25:51;57.00;;;34.47;;
13325;SDS011;6732;51.044;3.746;2022-11-20T00:28:16;55.57;;;32.23;;
13325;SDS011;6732;51.044;3.746;2022-11-20T00:30:42;55.20;;;31.90;;
13325;SDS011;6732;51.044;3.746;2022-11-20T00:33:08;52.67;;;31.17;;
13325;SDS011;6732;51.044;3.746;2022-11-20T00:35:34;58.30;;;32.77;;
13325;SDS011;6732;51.044;3.746;2022-11-20T00:38:00;52.57;;;31.30;;
13325;SDS011;6732;51.044;3.746;2022-11-20T00:40:26;53.27;;;30.63;;
13325;SDS011;6732;51.044;3.746;2022-11-20T00:42:52;58.13;;;32.87;;
13325;SDS011;6732;51.044;3.746;2022-11-20T00:45:18;54.60;;;33.17;;
13325;SDS011;6732;51.044;3.746;2022-11-20T00:47:44;51.37;;;31.73;;
13325;SDS011;6732;51.044;3.746;2022-11-20T00:50:10;52.63;;;33.90;;
13325;SDS011;6732;51.044;3.746;2022-11-20T00:52:35;54.23;;;33.50;;
13325;SDS011;6732;51.044;3.746;2022-11-20T00:55:01;53.23;;;29.57;;
13325;SDS011;6732;51.044;3.746;2022-11-20T00:57:27;53.77;;;34.03;;
13325;SDS011;6732;51.044;3.746;2022-11-20T00:59:53;53.00;;;33.53;;
13325;SDS011;6732;51.044;3.746;2022-11-20T01:02:19;56.67;;;34.60;;
13325;SDS011;6732;51.044;3.746;2022-11-20T01:04:45;55.63;;;33.30;;
13325;SDS011;6732;51.044;3.746;2022-11-20T01:07:11;52.47;;;33.50;;
13325;SDS011;6732;51.044;3.746;2022-11-20T01:09:36;59.97;;;33.87;;
13325;SDS011;6732;51.044;3.746;2022-11-20T01:12:02;54.23;;;33.93;;
13325;SDS011;6732;51.044;3.746;2022-11-20T01:14:28;54.50;;;33.20;;
13325;SDS011;6732;51.044;3.746;2022-11-20T01:16:54;52.17;;;33.67;;
13325;SDS011;6732;51.044;3.746;2022-11-20T01:19:21;52.13;;;33.37;;
13325;SDS011;6732;51.044;3.746;2022-11-20T01:21:49;53.13;;;34.07;;
13325;SDS011;6732;51.044;3.746;2022-11-20T01:24:17;50.77;;;32.57;;
13325;SDS011;6732;51.044;3.746;2022-11-20T01:26:44;54.83;;;33.50;;
13325;SDS011;6732;51.044;3.746;2022-11-20T01:29:13;52.37;;;33.77;;
13325;SDS011;6732;51.044;3.746;2022-11-20T01:31:44;50.83;;;32.70;;
13325;SDS011;6732;51.044;3.746;2022-11-20T01:34:11;53.67;;;32.27;;
13325;SDS011;6732;51.044;3.746;2022-11-20T01:36:38;51.47;;;32.30;;
13325;SDS011;6732;51.044;3.746;2022-11-20T01:39:13;53.53;;;33.37;;
13325;SDS011;6732;51.044;3.746;2022-11-20T01:41:47;50.57;;;32.20;;
13325;SDS011;6732;51.044;3.746;2022-11-20T01:44:53;50.17;;;33.47;;
13325;SDS011;6732;51.044;3.746;2022-11-20T01:47:24;50.07;;;32.30;;
13325;SDS011;6732;51.044;3.746;2022-11-20T01:49:56;50.77;;;33.13;;
13325;SDS011;6732;51.044;3.746;2022-11-20T01:52:28;49.57;;;32.20;;
13325;SDS011;6732;51.044;3.746;2022-11-20T01:55:00;48.83;;;32.00;;
13325;SDS011;6732;51.044;3.746;2022-11-20T01:57:30;48.97;;;32.07;;
13325;SDS011;6732;51.044;3.746;2022-11-20T02:00:08;49.60;;;32.57;;
13325;SDS011;6732;51.044;3.746;2022-11-20T02:02:37;54.20;;;33.87;;
13325;SDS011;6732;51.044;3.746;2022-11-20T02:05:14;52.83;;;34.10;;
13325;SDS011;6732;51.044;3.746;2022-11-20T02:07:52;56.90;;;33.47;;
13325;SDS011;6732;51.044;3.746;2022-11-20T02:10:19;55.83;;;33.17;;
13325;SDS011;6732;51.044;3.746;2022-11-20T02:12:46;50.37;;;33.00;;
13325;SDS011;6732;51.044;3.746;2022-11-20T02:15:32;54.50;;;32.83;;
13325;SDS011;6732;51.044;3.746;2022-11-20T02:17:59;52.40;;;33.67;;
13325;SDS011;6732;51.044;3.746;2022-11-20T02:20:25;53.80;;;32.50;;
13325;SDS011;6732;51.044;3.746;2022-11-20T02:22:55;55.63;;;33.57;;
13325;SDS011;6732;51.044;3.746;2022-11-20T02:25:28;51.13;;;32.97;;
13325;SDS011;6732;51.044;3.746;2022-11-20T02:27:57;56.10;;;33.10;;
13325;SDS011;6732;51.044;3.746;2022-11-20T02:30:23;52.23;;;34.27;;
13325;SDS011;6732;51.044;3.746;2022-11-20T02:32:49;56.37;;;34.20;;
13325;SDS011;6732;51.044;3.746;2022-11-20T02:37:43;52.13;;;33.17;;
13325;SDS011;6732;51.044;3.746;2022-11-20T02:40:11;56.13;;;34.13;;
13325;SDS011;6732;51.044;3.746;2022-11-20T02:42:37;53.40;;;32.47;;
13325;SDS011;6732;51.044;3.746;2022-11-20T02:45:04;52.60;;;32.00;;
13325;SDS011;6732;51.044;3.746;2022-11-20T02:47:31;48.70;;;32.87;;
13325;SDS011;6732;51.044;3.746;2022-11-20T02:49:57;52.27;;;33.13;;
13325;SDS011;6732;51.044;3.746;2022-11-20T02:52:24;49.77;;;32.97;;
13325;SDS011;6732;51.044;3.746;2022-11-20T02:54:50;51.17;;;32.43;;
13325;SDS011;6732;51.044;3.746;2022-11-20T02:57:17;49.90;;;32.57;;
13325;SDS011;6732;51.044;3.746;2022-11-20T02:59:43;49.70;;;31.33;;
13325;SDS011;6732;51.044;3.746;2022-11-20T03:02:09;51.87;;;32.87;;
13325;SDS011;6732;51.044;3.746;2022-11-20T03:04:34;51.93;;;33.07;;
13325;SDS011;6732;51.044;3.746;2022-11-20T03:07:00;49.53;;;32.10;;
13325;SDS011;6732;51.044;3.746;2022-11-20T03:09:27;52.83;;;33.07;;
13325;SDS011;6732;51.044;3.746;2022-11-20T03:11:52;47.90;;;29.50;;
13325;SDS011;6732;51.044;3.746;2022-11-20T03:14:18;47.77;;;29.63;;
13325;SDS011;6732;51.044;3.746;2022-11-20T03:16:44;47.53;;;27.87;;
13325;SDS011;6732;51.044;3.746;2022-11-20T03:19:11;47.23;;;29.07;;
13325;SDS011;6732;51.044;3.746;2022-11-20T03:21:37;46.53;;;28.77;;
13325;SDS011;6732;51.044;3.746;2022-11-20T03:24:03;48.23;;;30.63;;
13325;SDS011;6732;51.044;3.746;2022-11-20T03:26:29;47.83;;;31.57;;
13325;SDS011;6732;51.044;3.746;2022-11-20T03:28:56;47.33;;;31.80;;
13325;SDS011;6732;51.044;3.746;2022-11-20T03:31:25;52.90;;;33.10;;
13325;SDS011;6732;51.044;3.746;2022-11-20T03:33:58;50.63;;;33.37;;
13325;SDS011;6732;51.044;3.746;2022-11-20T03:36:24;51.00;;;32.67;;
13325;SDS011;6732;51.044;3.746;2022-11-20T03:38:52;48.93;;;32.13;;
13325;SDS011;6732;51.044;3.746;2022-11-20T03:41:40;47.43;;;31.33;;
13325;SDS011;6732;51.044;3.746;2022-11-20T03:44:06;49.07;;;31.63;;
13325;SDS011;6732;51.044;3.746;2022-11-20T03:46:34;47.60;;;28.47;;
13325;SDS011;6732;51.044;3.746;2022-11-20T03:49:00;50.53;;;30.53;;
13325;SDS011;6732;51.044;3.746;2022-11-20T03:51:30;48.40;;;30.93;;
13325;SDS011;6732;51.044;3.746;2022-11-20T03:53:58;47.73;;;31.20;;
13325;SDS011;6732;51.044;3.746;2022-11-20T03:56:30;47.13;;;31.33;;
13325;SDS011;6732;51.044;3.746;2022-11-20T03:58:58;45.63;;;27.80;;
13325;SDS011;6732;51.044;3.746;2022-11-20T04:01:26;48.20;;;27.87;;
13325;SDS011;6732;51.044;3.746;2022-11-20T04:03:55;45.60;;;27.13;;
13325;SDS011;6732;51.044;3.746;2022-11-20T04:06:43;45.20;;;28.37;;
13325;SDS011;6732;51.044;3.746;2022-11-20T04:09:08;43.97;;;28.70;;
13325;SDS011;6732;51.044;3.746;2022-11-20T04:11:35;46.37;;;30.63;;
13325;SDS011;6732;51.044;3.746;2022-11-20T04:14:03;48.77;;;30.97;;
13325;SDS011;6732;51.044;3.746;2022-11-20T04:16:32;47.53;;;30.20;;
13325;SDS011;6732;51.044;3.746;2022-11-20T04:19:00;45.50;;;30.37;;
13325;SDS011;6732;51.044;3.746;2022-11-20T04:21:27;46.23;;;30.23;;
13325;SDS011;6732;51.044;3.746;2022-11-20T04:23:53;47.37;;;30.83;;
13325;SDS011;6732;51.044;3.746;2022-11-20T04:26:21;49.67;;;31.33;;
13325;SDS011;6732;51.044;3.746;2022-11-20T04:28:48;44.30;;;28.13;;
13325;SDS011;6732;51.044;3.746;2022-11-20T04:31:15;43.53;;;28.40;;
13325;SDS011;6732;51.044;3.746;2022-11-20T04:33:46;46.33;;;28.07;;
13325;SDS011;6732;51.044;3.746;2022-11-20T04:36:22;44.63;;;26.43;;
13325;SDS011;6732;51.044;3.746;2022-11-20T04:38:50;43.00;;;26.57;;
13325;SDS011;6732;51.044;3.746;2022-11-20T04:41:18;46.37;;;27.97;;
13325;SDS011;6732;51.044;3.746;2022-11-20T04:43:49;43.87;;;26.50;;
13325;SDS011;6732;51.044;3.746;2022-11-20T04:46:16;48.07;;;28.70;;
13325;SDS011;6732;51.044;3.746;2022-11-20T04:48:43;42.53;;;26.23;;
13325;SDS011;6732;51.044;3.746;2022-11-20T04:51:09;43.03;;;27.13;;
13325;SDS011;6732;51.044;3.746;2022-11-20T04:53:35;45.57;;;27.37;;
13325;SDS011;6732;51.044;3.746;2022-11-20T04:56:02;47.53;;;27.07;;
13325;SDS011;6732;51.044;3.746;2022-11-20T04:58:30;44.87;;;27.13;;
13325;SDS011;6732;51.044;3.746;2022-11-20T05:01:00;46.63;;;27.97;;
13325;SDS011;6732;51.044;3.746;2022-11-20T05:03:31;43.93;;;26.17;;
13325;SDS011;6732;51.044;3.746;2022-11-20T05:05:59;44.87;;;26.47;;
13325;SDS011;6732;51.044;3.746;2022-11-20T05:08:26;44.03;;;26.93;;
13325;SDS011;6732;51.044;3.746;2022-11-20T05:10:53;47.27;;;27.80;;
13325;SDS011;6732;51.044;3.746;2022-11-20T05:13:19;46.13;;;27.50;;
13325;SDS011;6732;51.044;3.746;2022-11-20T05:15:45;47.40;;;28.83;;
13325;SDS011;6732;51.044;3.746;2022-11-20T05:18:11;48.23;;;29.20;;
13325;SDS011;6732;51.044;3.746;2022-11-20T05:20:36;51.70;;;31.50;;
13325;SDS011;6732;51.044;3.746;2022-11-20T05:23:02;51.77;;;31.97;;
13325;SDS011;6732;51.044;3.746;2022-11-20T05:25:28;50.53;;;28.60;;
13325;SDS011;6732;51.044;3.746;2022-11-20T05:27:54;53.43;;;30.50;;
13325;SDS011;6732;51.044;3.746;2022-11-20T05:30:20;55.70;;;31.23;;
13325;SDS011;6732;51.044;3.746;2022-11-20T05:32:46;56.17;;;32.37;;
13325;SDS011;6732;51.044;3.746;2022-11-20T05:35:12;52.37;;;31.43;;
13325;SDS011;6732;51.044;3.746;2022-11-20T05:37:38;54.83;;;31.90;;
13325;SDS011;6732;51.044;3.746;2022-11-20T05:40:04;51.90;;;31.73;;
13325;SDS011;6732;51.044;3.746;2022-11-20T05:42:30;55.57;;;32.77;;
13325;SDS011;6732;51.044;3.746;2022-11-20T05:44:59;59.77;;;33.40;;
13325;SDS011;6732;51.044;3.746;2022-11-20T05:47:27;56.20;;;31.47;;
13325;SDS011;6732;51.044;3.746;2022-11-20T05:49:56;57.57;;;32.03;;
13325;SDS011;6732;51.044;3.746;2022-11-20T05:52:22;56.83;;;29.87;;
13325;SDS011;6732;51.044;3.746;2022-11-20T05:54:48;54.77;;;29.63;;
13325;SDS011;6732;51.044;3.746;2022-11-20T05:57:14;56.87;;;30.70;;
13325;SDS011;6732;51.044;3.746;2022-11-20T05:59:42;55.93;;;31.70;;
13325;SDS011;6732;51.044;3.746;2022-11-20T06:02:07;59.03;;;32.37;;
13325;SDS011;6732;51.044;3.746;2022-11-20T06:04:34;63.10;;;34.87;;
13325;SDS011;6732;51.044;3.746;2022-11-20T06:06:59;64.03;;;33.83;;
13325;SDS011;6732;51.044;3.746;2022-11-20T06:09:26;64.37;;;32.27;;
13325;SDS011;6732;51.044;3.746;2022-11-20T06:11:52;62.40;;;32.23;;
13325;SDS011;6732;51.044;3.746;2022-11-20T06:14:18;62.17;;;32.23;;
13325;SDS011;6732;51.044;3.746;2022-11-20T06:16:44;64.60;;;31.30;;
13325;SDS011;6732;51.044;3.746;2022-11-20T06:19:10;66.47;;;34.00;;
13325;SDS011;6732;51.044;3.746;2022-11-20T06:21:36;61.30;;;32.83;;
13325;SDS011;6732;51.044;3.746;2022-11-20T06:24:02;60.03;;;30.50;;
13325;SDS011;6732;51.044;3.746;2022-11-20T06:26:28;58.23;;;30.50;;
13325;SDS011;6732;51.044;3.746;2022-11-20T06:28:55;60.63;;;30.77;;
13325;SDS011;6732;51.044;3.746;2022-11-20T06:31:22;56.93;;;29.87;;
13325;SDS011;6732;51.044;3.746;2022-11-20T06:33:49;59.53;;;31.73;;
13325;SDS011;6732;51.044;3.746;2022-11-20T06:36:16;55.93;;;32.10;;
13325;SDS011;6732;51.044;3.746;2022-11-20T06:38:43;55.90;;;31.47;;
13325;SDS011;6732;51.044;3.746;2022-11-20T06:41:17;57.70;;;32.67;;
13325;SDS011;6732;51.044;3.746;2022-11-20T06:43:44;55.70;;;32.47;;
13325;SDS011;6732;51.044;3.746;2022-11-20T06:46:11;52.77;;;29.97;;
13325;SDS011;6732;51.044;3.746;2022-11-20T06:48:38;53.87;;;31.53;;
13325;SDS011;6732;51.044;3.746;2022-11-20T06:51:04;54.43;;;31.03;;
13325;SDS011;6732;51.044;3.746;2022-11-20T06:53:30;50.57;;;28.10;;
13325;SDS011;6732;51.044;3.746;2022-11-20T06:55:56;48.77;;;26.60;;
13325;SDS011;6732;51.044;3.746;2022-11-20T06:58:23;51.23;;;27.37;;
13325;SDS011;6732;51.044;3.746;2022-11-20T07:00:52;59.67;;;28.80;;
13325;SDS011;6732;51.044;3.746;2022-11-20T07:03:18;51.63;;;28.63;;
13325;SDS011;6732;51.044;3.746;2022-11-20T07:05:44;52.63;;;28.67;;
13325;SDS011;6732;51.044;3.746;2022-11-20T07:08:11;49.53;;;26.90;;
13325;SDS011;6732;51.044;3.746;2022-11-20T07:10:37;51.53;;;28.03;;
13325;SDS011;6732;51.044;3.746;2022-11-20T07:13:03;50.87;;;28.60;;
13325;SDS011;6732;51.044;3.746;2022-11-20T07:15:30;49.07;;;27.03;;
13325;SDS011;6732;51.044;3.746;2022-11-20T07:17:58;50.87;;;28.33;;
13325;SDS011;6732;51.044;3.746;2022-11-20T07:20:25;53.03;;;30.57;;
13325;SDS011;6732;51.044;3.746;2022-11-20T07:22:54;52.87;;;28.10;;
13325;SDS011;6732;51.044;3.746;2022-11-20T07:25:21;50.90;;;29.30;;
13325;SDS011;6732;51.044;3.746;2022-11-20T07:27:48;55.40;;;27.37;;
13325;SDS011;6732;51.044;3.746;2022-11-20T07:30:14;51.13;;;27.53;;
13325;SDS011;6732;51.044;3.746;2022-11-20T07:32:41;53.03;;;27.40;;
13325;SDS011;6732;51.044;3.746;2022-11-20T07:35:06;51.43;;;27.60;;
13325;SDS011;6732;51.044;3.746;2022-11-20T07:37:36;52.07;;;28.10;;
13325;SDS011;6732;51.044;3.746;2022-11-20T07:40:02;52.23;;;26.43;;
13325;SDS011;6732;51.044;3.746;2022-11-20T07:42:28;51.70;;;27.03;;
13325;SDS011;6732;51.044;3.746;2022-11-20T07:44:54;48.40;;;26.67;;
13325;SDS011;6732;51.044;3.746;2022-11-20T07:47:20;51.53;;;28.30;;
13325;SDS011;6732;51.044;3.746;2022-11-20T07:49:46;51.87;;;26.63;;
13325;SDS011;6732;51.044;3.746;2022-11-20T07:52:12;48.53;;;25.00;;
13325;SDS011;6732;51.044;3.746;2022-11-20T07:54:38;47.87;;;27.13;;
13325;SDS011;6732;51.044;3.746;2022-11-20T07:57:03;51.23;;;28.63;;
13325;SDS011;6732;51.044;3.746;2022-11-20T07:59:29;53.23;;;29.73;;
13325;SDS011;6732;51.044;3.746;2022-11-20T08:01:55;57.87;;;30.13;;
13325;SDS011;6732;51.044;3.746;2022-11-20T08:04:21;51.70;;;28.77;;
13325;SDS011;6732;51.044;3.746;2022-11-20T08:06:48;49.73;;;27.10;;
13325;SDS011;6732;51.044;3.746;2022-11-20T08:09:14;50.93;;;26.33;;
13325;SDS011;6732;51.044;3.746;2022-11-20T08:11:40;51.13;;;26.57;;
13325;SDS011;6732;51.044;3.746;2022-11-20T08:14:25;54.27;;;27.87;;
13325;SDS011;6732;51.044;3.746;2022-11-20T08:16:52;52.73;;;27.23;;
13325;SDS011;6732;51.044;3.746;2022-11-20T08:19:19;53.03;;;27.63;;
13325;SDS011;6732;51.044;3.746;2022-11-20T08:21:45;52.30;;;26.40;;
13325;SDS011;6732;51.044;3.746;2022-11-20T08:24:11;50.70;;;26.47;;
13325;SDS011;6732;51.044;3.746;2022-11-20T08:26:38;53.17;;;27.17;;
13325;SDS011;6732;51.044;3.746;2022-11-20T08:29:05;53.30;;;26.67;;
13325;SDS011;6732;51.044;3.746;2022-11-20T08:31:31;54.03;;;28.23;;
13325;SDS011;6732;51.044;3.746;2022-11-20T08:33:57;50.50;;;26.10;;
13325;SDS011;6732;51.044;3.746;2022-11-20T08:36:23;51.57;;;26.80;;
13325;SDS011;6732;51.044;3.746;2022-11-20T08:38:50;51.60;;;26.23;;
13325;SDS011;6732;51.044;3.746;2022-11-20T08:41:18;53.73;;;26.90;;
13325;SDS011;6732;51.044;3.746;2022-11-20T08:46:22;52.67;;;26.47;;
13325;SDS011;6732;51.044;3.746;2022-11-20T08:48:49;49.90;;;26.10;;
13325;SDS011;6732;51.044;3.746;2022-11-20T08:51:15;45.83;;;25.30;;
13325;SDS011;6732;51.044;3.746;2022-11-20T08:53:42;49.30;;;25.53;;
13325;SDS011;6732;51.044;3.746;2022-11-20T08:56:08;42.67;;;24.17;;
13325;SDS011;6732;51.044;3.746;2022-11-20T08:58:37;43.83;;;23.80;;
13325;SDS011;6732;51.044;3.746;2022-11-20T09:01:04;47.83;;;24.90;;
13325;SDS011;6732;51.044;3.746;2022-11-20T09:03:30;43.43;;;23.63;;
13325;SDS011;6732;51.044;3.746;2022-11-20T09:06:00;42.27;;;23.63;;
13325;SDS011;6732;51.044;3.746;2022-11-20T09:08:27;44.60;;;23.57;;
13325;SDS011;6732;51.044;3.746;2022-11-20T09:10:54;43.63;;;23.97;;
13325;SDS011;6732;51.044;3.746;2022-11-20T09:13:21;40.83;;;23.07;;
13325;SDS011;6732;51.044;3.746;2022-11-20T09:15:55;42.10;;;22.83;;
13325;SDS011;6732;51.044;3.746;2022-11-20T09:18:23;43.63;;;23.17;;
13325;SDS011;6732;51.044;3.746;2022-11-20T09:20:50;38.23;;;21.97;;
13325;SDS011;6732;51.044;3.746;2022-11-20T09:23:16;42.10;;;22.47;;
13325;SDS011;6732;51.044;3.746;2022-11-20T09:25:43;40.23;;;22.47;;
13325;SDS011;6732;51.044;3.746;2022-11-20T09:28:09;38.50;;;21.67;;
13325;SDS011;6732;51.044;3.746;2022-11-20T09:30:35;38.10;;;22.73;;
13325;SDS011;6732;51.044;3.746;2022-11-20T09:33:01;35.10;;;21.37;;
13325;SDS011;6732;51.044;3.746;2022-11-20T09:35:29;34.27;;;21.03;;
13325;SDS011;6732;51.044;3.746;2022-11-20T09:37:55;33.13;;;20.27;;
13325;SDS011;6732;51.044;3.746;2022-11-20T09:42:55;32.50;;;19.27;;
13325;SDS011;6732;51.044;3.746;2022-11-20T09:45:38;32.60;;;19.50;;
13325;SDS011;6732;51.044;3.746;2022-11-20T09:56:00;26.67;;;18.10;;
13325;SDS011;6732;51.044;3.746;2022-11-20T09:58:47;30.53;;;19.10;;
13325;SDS011;6732;51.044;3.746;2022-11-20T10:01:23;32.40;;;19.23;;
13325;SDS011;6732;51.044;3.746;2022-11-20T10:06:40;27.60;;;18.90;;
13325;SDS011;6732;51.044;3.746;2022-11-20T10:14:16;28.67;;;18.00;;
13325;SDS011;6732;51.044;3.746;2022-11-20T10:20:02;26.63;;;17.50;;
13325;SDS011;6732;51.044;3.746;2022-11-20T10:25:39;25.43;;;15.33;;
13325;SDS011;6732;51.044;3.746;2022-11-20T10:31:09;21.47;;;13.73;;
13325;SDS011;6732;51.044;3.746;2022-11-20T10:33:41;21.93;;;13.03;;
13325;SDS011;6732;51.044;3.746;2022-11-20T10:36:19;20.47;;;12.03;;
13325;SDS011;6732;51.044;3.746;2022-11-20T10:38:50;21.40;;;12.90;;
13325;SDS011;6732;51.044;3.746;2022-11-20T10:41:27;15.60;;;9.93;;
13325;SDS011;6732;51.044;3.746;2022-11-20T10:44:09;15.93;;;10.23;;
13325;SDS011;6732;51.044;3.746;2022-11-20T10:47:01;17.00;;;9.20;;
13325;SDS011;6732;51.044;3.746;2022-11-20T10:49:30;14.20;;;8.67;;
13325;SDS011;6732;51.044;3.746;2022-11-20T10:54:50;15.43;;;7.50;;
13325;SDS011;6732;51.044;3.746;2022-11-20T11:00:11;11.47;;;6.27;;
13325;SDS011;6732;51.044;3.746;2022-11-20T11:02:50;13.80;;;6.60;;
13325;SDS011;6732;51.044;3.746;2022-11-20T11:05:37;11.83;;;6.10;;
13325;SDS011;6732;51.044;3.746;2022-11-20T11:08:12;11.73;;;5.80;;
13325;SDS011;6732;51.044;3.746;2022-11-20T11:10:51;10.50;;;5.90;;
13325;SDS011;6732;51.044;3.746;2022-11-20T11:13:26;9.17;;;6.17;;
13325;SDS011;6732;51.044;3.746;2022-11-20T11:15:54;10.57;;;5.70;;
13325;SDS011;6732;51.044;3.746;2022-11-20T11:18:28;10.97;;;5.53;;
13325;SDS011;6732;51.044;3.746;2022-11-20T11:20:57;6.83;;;5.37;;
13325;SDS011;6732;51.044;3.746;2022-11-20T11:23:35;7.97;;;5.40;;
13325;SDS011;6732;51.044;3.746;2022-11-20T11:26:03;8.50;;;5.40;;
13325;SDS011;6732;51.044;3.746;2022-11-20T11:28:31;8.70;;;5.50;;
13325;SDS011;6732;51.044;3.746;2022-11-20T11:30:57;6.87;;;4.83;;
13325;SDS011;6732;51.044;3.746;2022-11-20T11:35:54;8.30;;;4.90;;
13325;SDS011;6732;51.044;3.746;2022-11-20T11:38:34;9.20;;;5.00;;
13325;SDS011;6732;51.044;3.746;2022-11-20T11:41:03;6.43;;;4.30;;
13325;SDS011;6732;51.044;3.746;2022-11-20T11:43:31;9.63;;;5.07;;
13325;SDS011;6732;51.044;3.746;2022-11-20T11:49:19;7.87;;;4.93;;
13325;SDS011;6732;51.044;3.746;2022-11-20T11:57:20;7.50;;;4.90;;
13325;SDS011;6732;51.044;3.746;2022-11-20T12:00:08;7.90;;;4.70;;
13325;SDS011;6732;51.044;3.746;2022-11-20T12:02:39;8.93;;;4.53;;
13325;SDS011;6732;51.044;3.746;2022-11-20T12:05:26;6.53;;;4.40;;
13325;SDS011;6732;51.044;3.746;2022-11-20T12:07:56;8.27;;;5.03;;
13325;SDS011;6732;51.044;3.746;2022-11-20T12:16:05;7.17;;;4.57;;
13325;SDS011;6732;51.044;3.746;2022-11-20T12:18:36;8.10;;;4.67;;
13325;SDS011;6732;51.044;3.746;2022-11-20T12:21:12;7.37;;;4.40;;
13325;SDS011;6732;51.044;3.746;2022-11-20T12:23:53;8.20;;;4.50;;
13325;SDS011;6732;51.044;3.746;2022-11-20T12:37:18;6.37;;;4.20;;
13325;SDS011;6732;51.044;3.746;2022-11-20T12:39:51;6.73;;;4.40;;
13325;SDS011;6732;51.044;3.746;2022-11-20T12:56:31;6.07;;;4.13;;
13325;SDS011;6732;51.044;3.746;2022-11-20T13:01:37;6.37;;;4.20;;
13325;SDS011;6732;51.044;3.746;2022-11-20T13:04:18;6.17;;;3.90;;
13325;SDS011;6732;51.044;3.746;2022-11-20T13:07:02;6.30;;;3.27;;
13325;SDS011;6732;51.044;3.746;2022-11-20T13:09:30;6.13;;;3.40;;
13325;SDS011;6732;51.044;3.746;2022-11-20T13:12:13;3.77;;;3.20;;
13325;SDS011;6732;51.044;3.746;2022-11-20T13:17:47;4.10;;;3.67;;
13325;SDS011;6732;51.044;3.746;2022-11-20T13:20:26;3.60;;;3.30;;
13325;SDS011;6732;51.044;3.746;2022-11-20T13:22:54;4.37;;;2.90;;
13325;SDS011;6732;51.044;3.746;2022-11-20T13:27:52;3.47;;;2.90;;
13325;SDS011;6732;51.044;3.746;2022-11-20T13:30:21;4.13;;;2.90;;
13325;SDS011;6732;51.044;3.746;2022-11-20T13:38:49;3.30;;;3.00;;
13325;SDS011;6732;51.044;3.746;2022-11-20T13:41:53;4.27;;;3.97;;
13325;SDS011;6732;51.044;3.746;2022-11-20T13:44:27;3.80;;;3.50;;
13325;SDS011;6732;51.044;3.746;2022-11-20T13:46:54;4.80;;;3.47;;
13325;SDS011;6732;51.044;3.746;2022-11-20T13:49:29;4.10;;;3.70;;
13325;SDS011;6732;51.044;3.746;2022-11-20T14:00:22;4.30;;;3.17;;
13325;SDS011;6732;51.044;3.746;2022-11-20T14:05:27;4.87;;;4.47;;
13325;SDS011;6732;51.044;3.746;2022-11-20T14:07:56;3.23;;;3.03;;
13325;SDS011;6732;51.044;3.746;2022-11-20T14:10:24;4.03;;;3.70;;
13325;SDS011;6732;51.044;3.746;2022-11-20T14:12:52;3.93;;;3.53;;
13325;SDS011;6732;51.044;3.746;2022-11-20T14:15:28;4.47;;;3.70;;
13325;SDS011;6732;51.044;3.746;2022-11-20T14:17:56;4.03;;;3.60;;
13325;SDS011;6732;51.044;3.746;2022-11-20T14:20:24;5.00;;;4.60;;
13325;SDS011;6732;51.044;3.746;2022-11-20T14:22:54;4.37;;;4.00;;
13325;SDS011;6732;51.044;3.746;2022-11-20T14:25:22;4.57;;;3.57;;
13325;SDS011;6732;51.044;3.746;2022-11-20T14:27:56;3.47;;;3.17;;
13325;SDS011;6732;51.044;3.746;2022-11-20T14:31:08;4.40;;;3.93;;
13325;SDS011;6732;51.044;3.746;2022-11-20T14:33:13;4.20;;;3.87;;
13325;SDS011;6732;51.044;3.746;2022-11-20T14:35:44;4.10;;;3.77;;
13325;SDS011;6732;51.044;3.746;2022-11-20T14:38:15;4.17;;;3.77;;
13325;SDS011;6732;51.044;3.746;2022-11-20T14:40:43;4.03;;;3.73;;
13325;SDS011;6732;51.044;3.746;2022-11-20T14:43:25;4.57;;;4.00;;
13325;SDS011;6732;51.044;3.746;2022-11-20T14:46:02;6.33;;;4.00;;
13325;SDS011;6732;51.044;3.746;2022-11-20T14:48:44;4.73;;;4.00;;
13325;SDS011;6732;51.044;3.746;2022-11-20T14:54:09;6.10;;;3.80;;
13325;SDS011;6732;51.044;3.746;2022-11-20T14:57:01;6.23;;;3.80;;
13325;SDS011;6732;51.044;3.746;2022-11-20T14:59:30;6.47;;;4.00;;
13325;SDS011;6732;51.044;3.746;2022-11-20T15:01:59;6.67;;;3.93;;
13325;SDS011;6732;51.044;3.746;2022-11-20T15:04:28;7.50;;;3.80;;
13325;SDS011;6732;51.044;3.746;2022-11-20T15:06:55;5.03;;;3.30;;
13325;SDS011;6732;51.044;3.746;2022-11-20T15:09:23;7.27;;;3.60;;
13325;SDS011;6732;51.044;3.746;2022-11-20T15:11:52;6.27;;;3.60;;
13325;SDS011;6732;51.044;3.746;2022-11-20T15:14:27;11.07;;;3.63;;
13325;SDS011;6732;51.044;3.746;2022-11-20T15:16:54;6.97;;;3.27;;
13325;SDS011;6732;51.044;3.746;2022-11-20T15:19:21;12.17;;;3.63;;
13325;SDS011;6732;51.044;3.746;2022-11-20T15:21:49;10.17;;;3.20;;
13325;SDS011;6732;51.044;3.746;2022-11-20T15:24:16;9.57;;;2.90;;
13325;SDS011;6732;51.044;3.746;2022-11-20T15:26:41;9.90;;;2.97;;
13325;SDS011;6732;51.044;3.746;2022-11-20T15:29:12;11.43;;;3.20;;
13325;SDS011;6732;51.044;3.746;2022-11-20T15:31:39;12.90;;;3.50;;
13325;SDS011;6732;51.044;3.746;2022-11-20T15:34:11;10.43;;;3.10;;
13325;SDS011;6732;51.044;3.746;2022-11-20T15:36:38;13.37;;;3.17;;
13325;SDS011;6732;51.044;3.746;2022-11-20T15:39:04;12.50;;;3.27;;
13325;SDS011;6732;51.044;3.746;2022-11-20T15:41:34;11.87;;;3.07;;
13325;SDS011;6732;51.044;3.746;2022-11-20T15:44:02;13.73;;;3.57;;
13325;SDS011;6732;51.044;3.746;2022-11-20T15:46:31;9.27;;;3.20;;
13325;SDS011;6732;51.044;3.746;2022-11-20T15:49:02;10.50;;;3.20;;
13325;SDS011;6732;51.044;3.746;2022-11-20T15:51:33;14.57;;;3.57;;
13325;SDS011;6732;51.044;3.746;2022-11-20T15:54:00;14.97;;;3.80;;
13325;SDS011;6732;51.044;3.746;2022-11-20T15:56:34;13.77;;;3.60;;
13325;SDS011;6732;51.044;3.746;2022-11-20T15:59:00;12.03;;;3.80;;
13325;SDS011;6732;51.044;3.746;2022-11-20T16:01:26;19.07;;;3.70;;
13325;SDS011;6732;51.044;3.746;2022-11-20T16:03:51;12.40;;;3.83;;
13325;SDS011;6732;51.044;3.746;2022-11-20T16:06:17;12.20;;;3.70;;
13325;SDS011;6732;51.044;3.746;2022-11-20T16:08:43;16.83;;;4.47;;
13325;SDS011;6732;51.044;3.746;2022-11-20T16:11:10;16.73;;;4.73;;
13325;SDS011;6732;51.044;3.746;2022-11-20T16:13:39;14.90;;;4.10;;
13325;SDS011;6732;51.044;3.746;2022-11-20T16:16:25;15.30;;;4.17;;
13325;SDS011;6732;51.044;3.746;2022-11-20T16:18:54;11.40;;;3.60;;
13325;SDS011;6732;51.044;3.746;2022-11-20T16:21:20;11.37;;;3.03;;
13325;SDS011;6732;51.044;3.746;2022-11-20T16:23:52;11.30;;;3.80;;
13325;SDS011;6732;51.044;3.746;2022-11-20T16:26:18;14.77;;;3.80;;
13325;SDS011;6732;51.044;3.746;2022-11-20T16:28:45;11.30;;;3.93;;
13325;SDS011;6732;51.044;3.746;2022-11-20T16:31:12;10.30;;;4.17;;
13325;SDS011;6732;51.044;3.746;2022-11-20T16:33:40;11.07;;;3.67;;
13325;SDS011;6732;51.044;3.746;2022-11-20T16:36:10;11.93;;;3.60;;
13325;SDS011;6732;51.044;3.746;2022-11-20T16:38:37;11.73;;;4.03;;
13325;SDS011;6732;51.044;3.746;2022-11-20T16:41:03;9.33;;;3.40;;